Time;durP1;ratioP1;P1;durP2;ratioP2;P2;SDS_P1;SDS_P2;PMS_P1;PMS_P2;Temp;Humidity;BMP_temperature;BMP_pressure;BME280_temperature;BME280_humidity;BME280_pressure;Samples;Min_cycle;Max_cycle;Signal;HPM_P1;HPM_P2
2023/09/03 10:38:50;;;;;;;7.00;2.40;;;20.70;99.90;;;;;;6282157;22;20050;-86
2023/09/03 10:45:19;;;;;;;7.95;2.85;;;20.50;99.90;;;;;;6157770;23;20072;-89
2023/09/03 10:48:29;;;;;;;;;;;;;;;;;;;;;
2023/09/03 10:51:50;;;;;;;7.70;2.50;;;21.40;99.90;;;;;;6071505;23;20021;-90
2023/09/03 11:04:25;;;;;;;7.90;3.25;;;22.00;99.90;;;;;;6185386;23;20015;-91
2023/09/03 11:07:23;;;;;;;8.23;2.70;;;22.20;99.90;;;;;;6182306;23;20095;-91
2023/09/03 11:09:49;;;;;;;6.93;2.22;;;22.30;99.90;;;;;;6158630;23;20102;-89
2023/09/03 11:32:04;;;;;;;6.70;2.08;;;22.40;99.90;;;;;;6280768;22;20031;-87
2023/09/03 11:42:22;;;;;;;6.40;2.17;;;22.50;99.90;;;;;;6300536;22;20019;-92
2023/09/03 11:44:51;;;;;;;6.15;1.92;;;22.60;99.90;;;;;;6277342;22;20031;-91
2023/09/03 11:47:17;;;;;;;5.63;1.98;;;22.50;99.90;;;;;;6249992;22;20020;-92
2023/09/03 11:52:15;;;;;;;6.18;2.00;;;22.60;99.90;;;;;;6275151;22;20336;-91
2023/09/03 11:54:42;;;;;;;5.15;2.03;;;22.60;99.90;;;;;;6249575;22;20019;-93
2023/09/03 11:57:16;;;;;;;6.25;2.00;;;22.70;99.90;;;;;;6286162;22;20022;-89
2023/09/03 11:59:47;;;;;;;6.35;2.30;;;22.80;99.90;;;;;;6296502;22;20022;-90
2023/09/03 12:02:19;;;;;;;6.15;2.00;;;22.90;99.90;;;;;;6249370;22;20082;-87
2023/09/03 12:04:49;;;;;;;5.43;1.95;;;22.80;99.90;;;;;;6266277;22;20090;-87
2023/09/03 12:10:22;;;;;;;6.50;1.90;;;23.00;99.90;;;;;;6306143;22;20095;-88
2023/09/03 12:13:06;;;;;;;7.30;2.15;;;23.20;99.90;;;;;;6279719;22;20077;-88
2023/09/03 12:15:34;;;;;;;6.65;2.30;;;23.20;99.90;;;;;;6279779;22;20011;-88
2023/09/03 12:18:10;;;;;;;7.22;2.20;;;23.40;99.90;;;;;;6306122;22;20343;-88
2023/09/03 12:20:51;;;;;;;7.20;2.17;;;23.60;99.90;;;;;;6306185;22;20065;-88
2023/09/03 12:23:23;;;;;;;7.10;2.58;;;23.50;99.90;;;;;;6279783;22;20015;-88
2023/09/03 12:25:54;;;;;;;6.22;2.20;;;23.70;99.90;;;;;;6279169;22;20102;-88
2023/09/03 12:28:35;;;;;;;7.57;2.38;;;23.70;99.90;;;;;;6278498;22;20313;-88
2023/09/03 12:31:17;;;;;;;6.70;2.30;;;24.00;99.90;;;;;;6279858;22;20355;-88
2023/09/03 12:34:04;;;;;;;4.80;1.80;;;24.30;99.90;;;;;;6280623;22;20023;-88
2023/09/03 12:36:32;;;;;;;5.25;1.92;;;24.30;99.90;;;;;;6279209;22;20015;-88
2023/09/03 12:39:03;;;;;;;6.75;2.00;;;24.20;99.90;;;;;;6305713;22;20015;-87
2023/09/03 12:41:57;;;;;;;5.65;1.90;;;24.40;99.90;;;;;;6277531;22;20015;-88
2023/09/03 12:44:42;;;;;;;5.47;1.90;;;24.60;99.90;;;;;;6306751;22;20075;-87
2023/09/03 12:50:11;;;;;;;6.78;2.00;;;24.40;99.80;;;;;;6305407;22;20019;-88
2023/09/03 12:52:50;;;;;;;;;;;;;;;;;;;;;
2023/09/03 12:59:48;;;;;;;8.63;2.42;;;24.60;99.90;;;;;;6124714;22;20051;-85
2023/09/03 13:02:18;;;;;;;9.93;5.25;;;24.90;99.90;;;;;;6187570;23;20494;-91
2023/09/03 13:04:47;;;;;;;5.60;2.00;;;25.10;99.90;;;;;;6214501;22;20016;-91
2023/09/03 13:08:18;;;;;;;7.35;2.10;;;25.00;99.90;;;;;;6309193;22;20015;-91
2023/09/03 13:11:12;;;;;;;6.60;2.10;;;25.20;99.90;;;;;;6279991;22;20502;-91
2023/09/03 13:13:49;;;;;;;6.38;2.08;;;25.00;99.90;;;;;;6269330;22;20015;-90
2023/09/03 13:16:38;;;;;;;5.30;1.92;;;24.90;99.90;;;;;;6215503;22;20449;-91
2023/09/03 13:19:13;;;;;;;6.05;2.00;;;25.00;99.90;;;;;;6217099;23;20471;-88
2023/09/03 13:22:01;;;;;;;5.38;1.90;;;25.30;99.90;;;;;;6190236;23;20161;-91
2023/09/03 13:27:18;;;;;;;5.75;2.00;;;25.50;99.90;;;;;;6315230;22;20027;-86
2023/09/03 13:29:44;;;;;;;7.00;2.10;;;25.10;99.90;;;;;;6313006;22;20114;-87
2023/09/03 13:32:12;;;;;;;7.25;2.13;;;24.80;99.90;;;;;;6311513;22;20459;-86
2023/09/03 13:34:40;;;;;;;7.72;2.25;;;24.40;99.90;;;;;;6313234;22;20015;-86
2023/09/03 13:37:06;;;;;;;7.30;2.30;;;24.10;99.90;;;;;;6339876;22;20155;-86
2023/09/03 13:39:32;;;;;;;5.38;1.83;;;23.90;99.90;;;;;;6338889;22;20558;-86
2023/09/03 14:48:33;;;;;;;6.20;2.08;;;23.90;99.90;;;;;;6299810;22;20083;-86
2023/09/03 17:49:24;;;;;;;6.65;2.45;;;21.20;99.90;;;;;;6278776;22;20192;-84
2023/09/03 17:52:22;;;;;;;6.80;2.50;;;21.10;99.90;;;;;;6338442;22;20015;-88
2023/09/03 18:33:46;;;;;;;8.63;3.17;;;18.50;99.90;;;;;;6254262;22;20686;-87
2023/09/03 18:40:01;;;;;;;15.38;4.60;;;18.40;99.90;;;;;;6337066;22;20096;-86
2023/09/03 20:52:11;;;;;;;10.38;5.82;;;15.50;99.90;;;;;;6284121;22;20345;-86
2023/09/03 21:06:10;;;;;;;11.70;6.60;;;15.20;99.90;;;;;;6292796;22;20031;-83
2023/09/03 21:09:28;;;;;;;;;;;;;;;;;;;;;
2023/09/03 21:12:43;;;;;;;11.50;5.90;;;15.10;99.90;;;;;;6212495;22;20053;-86
2023/09/03 21:16:35;;;;;;;;;;;;;;;;;;;;;
2023/09/03 21:34:38;;;;;;;;;;;;;;;;;;;;;
